Time;durP1;ratioP1;P1;durP2;ratioP2;P2;SDS_P1;SDS_P2;PMS_P1;PMS_P2;Temp;Humidity;BMP_temperature;BMP_pressure;BME280_temperature;BME280_humidity;BME280_pressure;Samples;Min_cycle;Max_cycle;Signal;HPM_P1;HPM_P2
2021/07/15 00:01:30;;;;;;;6.30;1.63;;;;;;;;;;5071015;28;20426;-65
2021/07/15 00:03:55;;;;;;;4.25;1.80;;;;;;;;;;5065369;28;20259;-65
2021/07/15 00:06:20;;;;;;;13.90;1.70;;;;;;;;;;5064114;28;20596;-65
2021/07/15 00:08:47;;;;;;;2.37;1.80;;;;;;;;;;5070483;28;20091;-65
2021/07/15 00:11:13;;;;;;;6.35;2.00;;;;;;;;;;5070437;28;20263;-65
2021/07/15 00:13:38;;;;;;;5.00;2.00;;;;;;;;;;5069666;28;20020;-65
2021/07/15 00:16:05;;;;;;;9.38;2.28;;;;;;;;;;5069490;28;20016;-65
2021/07/15 00:18:32;;;;;;;8.40;2.30;;;;;;;;;;5068542;28;20028;-65
2021/07/15 00:20:58;;;;;;;4.03;2.45;;;;;;;;;;5070279;28;20103;-65
2021/07/15 00:23:23;;;;;;;10.27;2.40;;;;;;;;;;5065364;28;20471;-65
2021/07/15 00:25:48;;;;;;;6.85;2.22;;;;;;;;;;5055641;28;20043;-65
2021/07/15 00:28:15;;;;;;;3.90;2.17;;;;;;;;;;5057107;28;20179;-65
2021/07/15 00:30:40;;;;;;;4.97;2.28;;;;;;;;;;5069990;28;20352;-65
2021/07/15 00:33:05;;;;;;;8.05;2.03;;;;;;;;;;5070404;28;20020;-65
2021/07/15 00:35:32;;;;;;;6.57;2.05;;;;;;;;;;5069426;28;20024;-65
2021/07/15 00:37:57;;;;;;;5.38;1.90;;;;;;;;;;5069580;28;20016;-65
2021/07/15 00:40:22;;;;;;;3.40;2.03;;;;;;;;;;5069869;28;20027;-65
2021/07/15 00:42:47;;;;;;;7.40;2.17;;;;;;;;;;5064858;28;20028;-65
2021/07/15 00:45:13;;;;;;;3.83;2.73;;;;;;;;;;5058063;28;20369;-65
2021/07/15 00:47:39;;;;;;;5.10;2.70;;;;;;;;;;5070371;28;20250;-65
2021/07/15 00:50:06;;;;;;;5.18;3.00;;;;;;;;;;5069604;28;20092;-65
2021/07/15 00:52:31;;;;;;;6.93;2.90;;;;;;;;;;5070131;28;20036;-65
2021/07/15 00:54:57;;;;;;;8.55;2.90;;;;;;;;;;5069991;28;20016;-65
2021/07/15 00:57:22;;;;;;;6.13;2.77;;;;;;;;;;5070052;28;20382;-65
2021/07/15 00:59:48;;;;;;;6.17;2.47;;;;;;;;;;5069507;28;20266;-65
2021/07/15 01:02:14;;;;;;;6.03;2.75;;;;;;;;;;5070284;28;20266;-65
2021/07/15 01:04:39;;;;;;;3.70;2.55;;;;;;;;;;5064233;28;20522;-65
2021/07/15 01:07:04;;;;;;;10.10;2.50;;;;;;;;;;5064391;28;20021;-65
2021/07/15 01:09:30;;;;;;;5.70;2.60;;;;;;;;;;5069832;28;20255;-65
2021/07/15 01:11:56;;;;;;;10.73;3.25;;;;;;;;;;5070285;28;20247;-65
2021/07/15 01:14:25;;;;;;;7.63;2.70;;;;;;;;;;5069772;28;20103;-65
2021/07/15 01:17:02;;;;;;;4.25;2.28;;;;;;;;;;5069969;28;20520;-65
2021/07/15 01:19:36;;;;;;;3.28;2.40;;;;;;;;;;5069412;28;20544;-65
2021/07/15 01:22:14;;;;;;;6.85;2.45;;;;;;;;;;5069287;28;20101;-65
2021/07/15 01:24:58;;;;;;;3.67;2.55;;;;;;;;;;5067440;28;20059;-65
2021/07/15 01:27:38;;;;;;;4.72;2.85;;;;;;;;;;5067936;28;20467;-65
2021/07/15 01:30:07;;;;;;;7.45;3.17;;;;;;;;;;5069620;28;20155;-65
2021/07/15 01:32:34;;;;;;;14.00;2.78;;;;;;;;;;5072020;28;20073;-65
2021/07/15 01:35:05;;;;;;;6.35;2.67;;;;;;;;;;5073386;28;20178;-65
2021/07/15 01:37:30;;;;;;;;;;;;;;;;;;5073709;28;20016;-65
2021/07/15 01:39:56;;;;;;;8.60;2.83;;;;;;;;;;5072708;28;20409;-65
2021/07/15 01:42:22;;;;;;;9.38;2.63;;;;;;;;;;5072577;28;20481;-65
2021/07/15 01:44:48;;;;;;;6.25;3.00;;;;;;;;;;5071753;28;20060;-65
2021/07/15 01:47:13;;;;;;;5.10;2.85;;;;;;;;;;5073244;28;20052;-65
2021/07/15 01:49:41;;;;;;;5.25;2.45;;;;;;;;;;5073205;28;20017;-65
2021/07/15 16:40:53;;;;;;;15.88;11.48;;;;;;;;;;5076251;27;2010360;-81
2021/07/15 16:43:18;;;;;;;18.95;12.18;;;;;;;;;;5115321;28;20075;-81
2021/07/15 16:45:43;;;;;;;18.35;12.20;;;;;;;;;;5106376;28;20030;-81
2021/07/15 16:48:09;;;;;;;21.02;13.00;;;;;;;;;;5103605;28;20491;-81
2021/07/15 16:50:34;;;;;;;16.33;11.82;;;;;;;;;;5090550;28;20433;-81
2021/07/15 16:52:59;;;;;;;18.70;12.03;;;;;;;;;;5105595;28;20035;-80
2021/07/15 16:55:24;;;;;;;18.23;11.48;;;;;;;;;;5097415;28;20269;-81
2021/07/15 16:57:51;;;;;;;21.73;12.73;;;;;;;;;;5094261;28;20455;-80
2021/07/15 17:00:17;;;;;;;19.35;12.80;;;;;;;;;;5103703;28;20035;-81
2021/07/15 17:02:45;;;;;;;23.20;14.15;;;;;;;;;;5104410;28;20015;-85
2021/07/15 17:05:14;;;;;;;25.50;14.57;;;;;;;;;;5105498;28;20436;-84
2021/07/15 17:07:39;;;;;;;26.30;16.10;;;;;;;;;;5104837;28;20025;-85
2021/07/15 17:10:05;;;;;;;27.65;17.30;;;;;;;;;;5105381;28;20229;-84
2021/07/15 17:12:30;;;;;;;27.48;17.40;;;;;;;;;;5105320;28;20019;-85
2021/07/15 17:14:56;;;;;;;23.57;16.43;;;;;;;;;;5087172;28;20035;-86
2021/07/15 17:17:21;;;;;;;30.80;17.38;;;;;;;;;;5078867;28;20101;-84
2021/07/15 17:19:46;;;;;;;29.30;16.53;;;;;;;;;;5066762;28;20024;-84
2021/07/15 17:22:11;;;;;;;27.65;17.35;;;;;;;;;;5087074;28;20837;-85
2021/07/15 17:24:36;;;;;;;30.77;17.90;;;;;;;;;;5087397;28;20023;-85
2021/07/15 17:27:02;;;;;;;28.45;17.65;;;;;;;;;;5086690;28;20494;-84
2021/07/15 17:29:27;;;;;;;22.45;16.52;;;;;;;;;;5086347;28;20507;-85
2021/07/15 17:31:53;;;;;;;25.40;16.42;;;;;;;;;;5088781;28;20028;-85
2021/07/15 17:34:18;;;;;;;24.90;17.50;;;;;;;;;;5104691;28;20066;-84
2021/07/15 17:36:44;;;;;;;26.55;17.27;;;;;;;;;;5084402;28;20032;-85
2021/07/15 17:39:09;;;;;;;26.05;16.98;;;;;;;;;;5072965;28;20027;-83
2021/07/15 17:41:34;;;;;;;27.20;17.60;;;;;;;;;;5084792;28;20539;-84
2021/07/15 17:44:00;;;;;;;27.15;16.95;;;;;;;;;;5117457;22;20420;-66
2021/07/15 17:46:25;;;;;;;19.13;15.73;;;;;;;;;;5071623;28;20036;-65
2021/07/15 17:48:50;;;;;;;24.90;16.30;;;;;;;;;;5065465;28;20258;-65
2021/07/15 17:51:15;;;;;;;19.67;14.97;;;;;;;;;;5057895;28;20684;-65
2021/07/15 17:53:40;;;;;;;23.55;15.68;;;;;;;;;;5064529;28;20266;-64
2021/07/15 17:56:06;;;;;;;22.90;16.47;;;;;;;;;;5066434;28;20543;-65
2021/07/15 17:58:31;;;;;;;21.00;15.73;;;;;;;;;;5060544;28;20253;-65
2021/07/15 18:00:56;;;;;;;22.35;15.23;;;;;;;;;;5070782;28;20266;-65
2021/07/15 18:03:21;;;;;;;26.20;16.05;;;;;;;;;;5061872;28;20029;-65
2021/07/15 18:05:47;;;;;;;27.00;15.07;;;;;;;;;;5052095;28;20101;-64
2021/07/15 18:08:12;;;;;;;18.13;13.70;;;;;;;;;;5051000;28;20727;-64
2021/07/15 18:10:37;;;;;;;23.90;13.75;;;;;;;;;;5052561;28;20388;-65
2021/07/15 18:13:07;;;;;;;19.52;14.02;;;;;;;;;;5058871;28;20029;-65
2021/07/15 18:15:33;;;;;;;;;;;;;;;;;;5064026;28;20039;-64
2021/07/15 18:17:58;;;;;;;20.95;15.18;;;;;;;;;;5058033;28;19912;-64
2021/07/15 18:20:24;;;;;;;19.30;15.35;;;;;;;;;;5062055;28;20025;-65
2021/07/15 18:22:50;;;;;;;20.00;15.25;;;;;;;;;;5065189;28;20040;-65
2021/07/15 18:25:17;;;;;;;20.58;15.05;;;;;;;;;;5058637;28;20096;-65
2021/07/15 18:27:43;;;;;;;23.75;16.23;;;;;;;;;;5062267;28;20511;-64
2021/07/15 18:30:09;;;;;;;22.42;14.77;;;;;;;;;;5061125;28;20036;-64
2021/07/15 18:32:35;;;;;;;23.95;15.40;;;;;;;;;;5067593;28;20108;-65
2021/07/15 18:35:00;;;;;;;22.48;14.45;;;;;;;;;;5061749;28;20540;-64
2021/07/15 18:37:25;;;;;;;16.20;13.10;;;;;;;;;;5055782;28;20222;-65
2021/07/15 18:39:51;;;;;;;20.92;14.73;;;;;;;;;;5058231;28;20320;-65
2021/07/15 18:42:16;;;;;;;22.15;14.80;;;;;;;;;;5055017;28;20108;-65
2021/07/15 18:44:41;;;;;;;19.65;14.60;;;;;;;;;;5051260;28;20496;-66
2021/07/15 18:47:06;;;;;;;20.73;15.40;;;;;;;;;;5051467;28;20013;-65
2021/07/15 18:49:32;;;;;;;21.63;14.50;;;;;;;;;;5051054;28;20746;-65
2021/07/15 18:51:58;;;;;;;18.55;15.43;;;;;;;;;;5051310;28;20017;-65
2021/07/15 18:54:23;;;;;;;21.45;15.15;;;;;;;;;;5055428;28;20031;-65
2021/07/15 18:56:49;;;;;;;20.88;14.70;;;;;;;;;;5066693;28;20052;-66
2021/07/15 18:59:14;;;;;;;21.10;16.15;;;;;;;;;;5064804;28;20024;-66
2021/07/15 19:01:39;;;;;;;23.85;16.30;;;;;;;;;;5062542;28;20019;-65
2021/07/15 19:04:06;;;;;;;27.80;18.27;;;;;;;;;;5067276;28;20104;-65
2021/07/15 19:06:31;;;;;;;23.60;17.00;;;;;;;;;;5043565;28;20041;-65
2021/07/15 19:08:57;;;;;;;27.00;17.40;;;;;;;;;;5050764;28;20438;-65
2021/07/15 19:11:22;;;;;;;24.65;17.52;;;;;;;;;;5051152;28;20260;-65
2021/07/15 19:13:48;;;;;;;25.50;18.00;;;;;;;;;;5052427;28;20492;-65
2021/07/15 19:16:14;;;;;;;29.58;19.33;;;;;;;;;;5070683;28;20480;-65
2021/07/15 19:18:40;;;;;;;27.48;19.02;;;;;;;;;;5070629;28;20025;-65
2021/07/15 19:21:07;;;;;;;26.27;18.35;;;;;;;;;;5070742;28;20028;-65
2021/07/15 19:23:32;;;;;;;29.40;19.20;;;;;;;;;;5070565;28;20465;-65
2021/07/15 19:25:57;;;;;;;25.93;18.23;;;;;;;;;;5054744;28;20029;-65
2021/07/15 19:28:22;;;;;;;25.50;18.00;;;;;;;;;;5051368;28;20304;-65
2021/07/15 19:30:47;;;;;;;30.93;18.70;;;;;;;;;;5050510;28;20255;-65
2021/07/15 19:33:13;;;;;;;23.57;15.57;;;;;;;;;;5060028;28;20263;-65
2021/07/15 19:35:38;;;;;;;29.10;16.17;;;;;;;;;;5070434;28;20255;-65
2021/07/15 19:38:04;;;;;;;33.60;15.52;;;;;;;;;;5070350;28;20259;-65
2021/07/15 19:40:29;;;;;;;25.63;18.17;;;;;;;;;;5070338;28;20031;-65
2021/07/15 19:42:55;;;;;;;25.85;17.52;;;;;;;;;;5069234;28;20023;-65
2021/07/15 19:45:21;;;;;;;33.08;19.90;;;;;;;;;;5054469;28;20394;-66
2021/07/15 19:47:47;;;;;;;37.28;23.10;;;;;;;;;;5061529;28;20025;-65
2021/07/15 19:50:13;;;;;;;40.85;24.60;;;;;;;;;;5053642;28;20021;-65
2021/07/15 19:52:39;;;;;;;38.65;22.25;;;;;;;;;;5049884;28;20024;-65
2021/07/15 19:55:05;;;;;;;37.42;22.60;;;;;;;;;;5066924;28;20017;-65
2021/07/15 19:57:30;;;;;;;38.72;21.20;;;;;;;;;;5069510;28;20060;-65
2021/07/15 19:59:55;;;;;;;34.60;20.43;;;;;;;;;;5070271;28;20062;-65
2021/07/15 20:02:20;;;;;;;32.83;20.50;;;;;;;;;;5052503;28;20758;-66
2021/07/15 20:04:46;;;;;;;39.10;21.63;;;;;;;;;;5050161;28;20271;-65
2021/07/15 20:07:11;;;;;;;38.10;21.98;;;;;;;;;;5050257;28;20032;-65
2021/07/15 20:09:36;;;;;;;41.75;24.02;;;;;;;;;;5066196;28;20012;-65
2021/07/15 20:12:01;;;;;;;37.45;23.25;;;;;;;;;;5050662;28;20028;-65
2021/07/15 20:14:26;;;;;;;40.00;23.83;;;;;;;;;;5070153;28;20034;-65
2021/07/15 20:16:52;;;;;;;39.78;23.00;;;;;;;;;;5068689;28;20051;-65
2021/07/15 20:19:17;;;;;;;45.33;25.57;;;;;;;;;;5066066;28;20362;-65
2021/07/15 20:21:44;;;;;;;46.05;25.38;;;;;;;;;;5070366;28;20754;-65
2021/07/15 20:24:09;;;;;;;41.30;24.52;;;;;;;;;;5070574;28;20046;-65
2021/07/15 20:26:35;;;;;;;47.67;25.42;;;;;;;;;;5057635;28;20044;-65
2021/07/15 20:29:00;;;;;;;46.72;25.58;;;;;;;;;;5058017;28;20040;-65
2021/07/15 20:31:25;;;;;;;45.85;25.13;;;;;;;;;;5063290;28;20024;-65
2021/07/15 20:33:51;;;;;;;48.40;25.20;;;;;;;;;;5052928;28;20067;-65
2021/07/15 20:36:16;;;;;;;45.50;24.13;;;;;;;;;;5061479;28;20251;-65
2021/07/15 20:38:41;;;;;;;46.42;23.33;;;;;;;;;;5066081;28;20275;-65
2021/07/15 20:41:07;;;;;;;49.97;25.75;;;;;;;;;;5060111;28;20040;-64
2021/07/15 20:43:32;;;;;;;43.00;25.75;;;;;;;;;;5050749;28;20432;-65
2021/07/15 20:45:57;;;;;;;46.65;26.17;;;;;;;;;;5055756;28;20013;-65
2021/07/15 20:48:23;;;;;;;46.03;25.05;;;;;;;;;;5061269;28;20028;-65
2021/07/15 20:50:48;;;;;;;42.53;23.97;;;;;;;;;;5069424;28;20009;-65
2021/07/15 20:53:13;;;;;;;42.83;25.30;;;;;;;;;;5054196;28;20259;-65
2021/07/15 20:55:38;;;;;;;43.38;25.35;;;;;;;;;;5066732;28;20278;-65
2021/07/15 20:58:04;;;;;;;51.83;25.50;;;;;;;;;;5054536;28;20029;-65
2021/07/15 21:00:32;;;;;;;42.13;22.02;;;;;;;;;;5061979;28;20314;-65
2021/07/15 21:02:58;;;;;;;38.22;21.63;;;;;;;;;;5070165;28;20532;-65
2021/07/15 21:05:23;;;;;;;45.55;23.50;;;;;;;;;;5069461;28;20108;-65
2021/07/15 21:07:48;;;;;;;34.60;22.90;;;;;;;;;;5069522;28;20098;-65
2021/07/15 21:10:14;;;;;;;42.47;21.97;;;;;;;;;;5068419;28;20060;-65
2021/07/15 21:12:40;;;;;;;43.55;24.10;;;;;;;;;;5064075;28;20357;-65
2021/07/15 21:15:06;;;;;;;46.53;24.80;;;;;;;;;;5063497;28;20016;-65
2021/07/15 21:17:32;;;;;;;45.30;23.45;;;;;;;;;;5069904;28;20453;-65
2021/07/15 21:19:57;;;;;;;41.45;22.83;;;;;;;;;;5069671;28;20099;-65
2021/07/15 21:22:22;;;;;;;42.27;23.67;;;;;;;;;;5069880;28;20013;-65
2021/07/15 21:24:48;;;;;;;39.83;24.33;;;;;;;;;;5069217;28;20607;-65
2021/07/15 21:27:13;;;;;;;38.50;23.25;;;;;;;;;;5072759;28;20016;-65
2021/07/15 21:29:39;;;;;;;39.67;23.67;;;;;;;;;;5065719;28;20025;-65
2021/07/15 21:32:04;;;;;;;44.67;26.00;;;;;;;;;;5062827;28;20040;-65
2021/07/15 21:34:30;;;;;;;47.30;26.92;;;;;;;;;;5057990;28;20480;-65
2021/07/15 21:36:55;;;;;;;53.65;28.83;;;;;;;;;;5068658;28;20369;-65
2021/07/15 21:39:20;;;;;;;56.10;29.80;;;;;;;;;;5058396;28;20033;-65
2021/07/15 21:41:45;;;;;;;55.63;30.40;;;;;;;;;;5068377;28;20077;-66
2021/07/15 21:44:11;;;;;;;61.00;32.50;;;;;;;;;;5065087;28;20268;-65
2021/07/15 21:46:36;;;;;;;68.68;34.45;;;;;;;;;;5068445;28;20270;-65
2021/07/15 21:49:01;;;;;;;64.35;35.90;;;;;;;;;;5066353;28;20017;-65
2021/07/15 21:51:27;;;;;;;79.50;39.03;;;;;;;;;;5069314;28;20024;-65
2021/07/15 21:53:53;;;;;;;71.27;38.60;;;;;;;;;;5073233;28;20377;-65
2021/07/15 21:56:18;;;;;;;82.22;40.88;;;;;;;;;;5064691;28;20260;-65
2021/07/15 21:58:43;;;;;;;83.37;43.73;;;;;;;;;;5059714;28;20021;-65
2021/07/15 22:01:08;;;;;;;79.90;42.07;;;;;;;;;;5073481;28;20259;-65
2021/07/15 22:03:34;;;;;;;87.53;43.85;;;;;;;;;;5073310;28;20095;-65
2021/07/15 22:05:59;;;;;;;89.83;44.50;;;;;;;;;;5065375;28;20044;-65
2021/07/15 22:08:25;;;;;;;87.50;44.00;;;;;;;;;;5062523;28;20270;-66
2021/07/15 22:10:50;;;;;;;96.47;47.47;;;;;;;;;;5057533;28;20042;-65
2021/07/15 22:13:15;;;;;;;86.75;44.53;;;;;;;;;;5073039;28;20273;-65
2021/07/15 22:15:40;;;;;;;81.88;43.85;;;;;;;;;;5072556;28;20017;-65
2021/07/15 22:18:07;;;;;;;92.70;45.85;;;;;;;;;;5065790;28;20473;-65
2021/07/15 22:20:33;;;;;;;89.45;44.35;;;;;;;;;;5052858;28;20605;-65
2021/07/15 22:23:01;;;;;;;95.65;46.85;;;;;;;;;;5072131;28;20020;-65
2021/07/15 22:25:26;;;;;;;81.80;43.38;;;;;;;;;;5058493;28;20017;-65
2021/07/15 22:27:52;;;;;;;85.55;42.08;;;;;;;;;;5052473;28;20062;-65
2021/07/15 22:30:19;;;;;;;82.35;42.65;;;;;;;;;;5053606;28;20029;-65
2021/07/15 22:32:44;;;;;;;89.97;41.00;;;;;;;;;;5052487;28;20485;-65
2021/07/15 22:35:15;;;;;;;77.45;39.55;;;;;;;;;;5052540;28;20021;-65
2021/07/15 22:37:40;;;;;;;65.85;34.85;;;;;;;;;;5051916;28;20021;-65
2021/07/15 22:40:06;;;;;;;66.63;34.80;;;;;;;;;;5052704;28;20489;-66
2021/07/15 22:42:31;;;;;;;67.93;32.83;;;;;;;;;;5056853;28;20009;-65
2021/07/15 22:44:57;;;;;;;56.05;29.83;;;;;;;;;;5052372;28;20029;-65
2021/07/15 22:47:22;;;;;;;51.20;29.00;;;;;;;;;;5052406;28;20359;-65
2021/07/15 22:49:47;;;;;;;50.87;28.70;;;;;;;;;;5052404;28;20039;-66
2021/07/15 22:52:12;;;;;;;59.35;27.92;;;;;;;;;;5052323;28;20289;-65
2021/07/15 22:54:37;;;;;;;59.27;26.93;;;;;;;;;;5052128;28;20017;-65
2021/07/15 22:57:04;;;;;;;64.70;27.37;;;;;;;;;;5061659;28;20035;-65
2021/07/15 22:59:29;;;;;;;58.90;25.38;;;;;;;;;;5061278;28;20477;-65
2021/07/15 23:01:54;;;;;;;48.17;24.33;;;;;;;;;;5052010;28;20079;-65
2021/07/15 23:04:19;;;;;;;47.83;22.97;;;;;;;;;;5052084;28;20389;-66
2021/07/15 23:06:44;;;;;;;42.47;21.77;;;;;;;;;;5054962;28;20024;-65
2021/07/15 23:09:10;;;;;;;46.05;20.70;;;;;;;;;;5072121;28;20380;-65
2021/07/15 23:11:35;;;;;;;48.47;20.73;;;;;;;;;;5071973;28;20077;-65
2021/07/15 23:14:01;;;;;;;49.27;20.17;;;;;;;;;;5070272;28;20465;-66
2021/07/15 23:16:27;;;;;;;47.15;19.38;;;;;;;;;;5056630;28;20103;-66
2021/07/15 23:18:52;;;;;;;39.95;17.23;;;;;;;;;;5051398;28;20504;-66
2021/07/15 23:21:17;;;;;;;33.60;16.03;;;;;;;;;;5051690;28;20032;-65
2021/07/15 23:23:42;;;;;;;35.42;14.77;;;;;;;;;;5051627;28;20248;-66
2021/07/15 23:26:07;;;;;;;36.42;14.68;;;;;;;;;;5051528;28;20020;-65
2021/07/15 23:28:33;;;;;;;33.40;14.30;;;;;;;;;;5066983;28;20427;-65
2021/07/15 23:30:58;;;;;;;29.27;12.97;;;;;;;;;;5061094;28;20086;-65
2021/07/15 23:33:23;;;;;;;32.00;14.17;;;;;;;;;;5071469;28;20305;-66
2021/07/15 23:35:48;;;;;;;27.67;13.45;;;;;;;;;;5071290;28;20270;-65
2021/07/15 23:38:14;;;;;;;27.97;12.67;;;;;;;;;;5070775;28;20021;-65
2021/07/15 23:40:39;;;;;;;24.87;13.27;;;;;;;;;;5071009;28;20286;-65
2021/07/15 23:43:04;;;;;;;27.75;13.63;;;;;;;;;;5071359;28;20020;-65
2021/07/15 23:45:29;;;;;;;24.90;12.23;;;;;;;;;;5068094;28;20029;-65
2021/07/15 23:47:54;;;;;;;23.85;13.10;;;;;;;;;;5056009;28;20047;-65
2021/07/15 23:50:20;;;;;;;26.40;12.93;;;;;;;;;;5070514;28;20032;-66
2021/07/15 23:52:46;;;;;;;25.23;11.85;;;;;;;;;;5071169;28;20259;-66
2021/07/15 23:55:11;;;;;;;26.70;13.98;;;;;;;;;;5070632;28;20219;-65
2021/07/15 23:57:37;;;;;;;28.50;14.52;;;;;;;;;;5070602;28;20065;-66
